createdAt,value
2018-08-24T07:15:52.000Z,27.3
2018-08-24T07:17:38.000Z,27.6
2018-08-24T07:18:38.000Z,27.7
2018-08-24T07:20:38.000Z,28
2018-08-24T07:22:38.000Z,28.3
2018-08-24T07:23:38.000Z,28.5
2018-08-24T07:25:38.000Z,28.8
2018-08-24T07:26:38.000Z,28.9
2018-08-24T07:27:38.000Z,29
2018-08-24T07:28:38.000Z,29.1
2018-08-24T07:30:38.000Z,29.2
2018-08-24T07:32:38.000Z,29.3
2018-08-24T07:34:38.000Z,29.4
2018-08-24T07:36:38.000Z,29.5
2018-08-24T07:38:38.000Z,29.5
2018-08-24T07:40:38.000Z,29.6
2018-08-24T07:42:38.000Z,29.6
2018-08-24T07:43:39.000Z,29.6
2018-08-24T07:45:39.000Z,29.7
2018-08-24T07:47:39.000Z,29.7
2018-08-24T07:49:39.000Z,29.6
2018-08-24T07:50:39.000Z,29.6
2018-08-24T07:52:39.000Z,29.7
2018-08-24T07:53:39.000Z,29.8
2018-08-24T07:55:39.000Z,29.8
2018-08-24T07:57:39.000Z,29.8
2018-08-24T07:58:39.000Z,29.8
2018-08-24T08:00:39.000Z,29.8
2018-08-24T08:01:39.000Z,29.8
2018-08-24T08:02:39.000Z,29.8
2018-08-24T08:04:24.000Z,29.8
2018-08-24T08:05:39.000Z,29.8
2018-08-24T08:06:39.000Z,29.8
2018-08-24T08:08:39.000Z,29.9
2018-08-24T08:09:39.000Z,29.9
2018-08-24T08:11:39.000Z,29.9
2018-08-24T08:13:39.000Z,29.9
2018-08-24T08:15:39.000Z,29.9
2018-08-24T08:16:39.000Z,29.9
2018-08-24T08:18:39.000Z,30
2018-08-24T08:20:39.000Z,30.1
2018-08-24T08:22:39.000Z,30.1
2018-08-24T08:24:39.000Z,30
2018-08-24T08:25:39.000Z,30
2018-08-24T08:26:39.000Z,30
2018-08-24T08:28:39.000Z,30.1
2018-08-24T08:30:39.000Z,30
2018-08-24T08:32:39.000Z,29.9
2018-08-24T08:33:39.000Z,29.9
2018-08-24T08:34:39.000Z,29.9
2018-08-24T08:35:39.000Z,29.9
2018-08-24T08:37:39.000Z,29.9
2018-08-24T08:38:39.000Z,29.9
2018-08-24T08:40:39.000Z,30
2018-08-24T08:41:39.000Z,30
2018-08-24T08:43:39.000Z,30.1
2018-08-24T08:44:39.000Z,30.1
2018-08-24T08:46:39.000Z,30.1
2018-08-24T08:48:39.000Z,29.9
2018-08-24T08:49:39.000Z,29.9
2018-08-24T08:50:39.000Z,29.9
2018-08-24T08:52:39.000Z,29.8
2018-08-24T08:53:39.000Z,29.9
2018-08-24T08:55:24.000Z,29.9
2018-08-24T08:56:39.000Z,29.8
2018-08-24T08:58:24.000Z,29.8
2018-08-24T08:59:39.000Z,29.8
2018-08-24T09:00:39.000Z,29.8
2018-08-24T09:02:39.000Z,29.9
2018-08-24T09:03:39.000Z,29.9
2018-08-24T09:04:39.000Z,30
2018-08-24T09:05:39.000Z,30
2018-08-24T09:07:39.000Z,30
2018-08-24T09:08:39.000Z,30
2018-08-24T09:10:39.000Z,29.9
2018-08-24T09:12:39.000Z,29.9
2018-08-24T09:13:39.000Z,29.9
2018-08-24T09:15:39.000Z,29.9
2018-08-24T09:16:39.000Z,29.9
2018-08-24T09:17:39.000Z,29.9
2018-08-24T09:18:39.000Z,29.9
2018-08-24T09:19:39.000Z,29.9
2018-08-24T09:20:39.000Z,29.9
2018-08-24T09:22:39.000Z,29.9
2018-08-24T09:24:39.000Z,29.8
2018-08-24T09:28:48.000Z,29.8
2018-08-24T09:30:33.000Z,30
2018-08-24T09:31:33.000Z,30
2018-08-24T09:33:33.000Z,30.1
2018-08-24T09:34:33.000Z,30.1
2018-08-24T09:36:33.000Z,30
2018-08-24T09:37:33.000Z,30
2018-08-24T09:39:33.000Z,30
2018-08-24T09:41:33.000Z,30.1
2018-08-24T09:43:33.000Z,30.1
2018-08-24T09:45:33.000Z,30.2
2018-08-24T09:47:33.000Z,30.1
2018-08-24T09:49:33.000Z,30.1
2018-08-24T09:50:34.000Z,30.2
2018-08-24T09:52:34.000Z,30.3
2018-08-24T09:53:34.000Z,30.3
2018-08-24T09:55:34.000Z,30.4
2018-08-24T09:57:34.000Z,30.4
2018-08-24T09:58:34.000Z,30.5
2018-08-24T09:59:34.000Z,30.7
2018-08-24T10:01:19.000Z,31
2018-08-24T10:02:34.000Z,31.1
2018-08-24T10:03:34.000Z,31.3
2018-08-24T10:05:34.000Z,31.5
2018-08-24T10:06:34.000Z,31.5
2018-08-24T10:08:34.000Z,31.5
2018-08-24T10:09:34.000Z,31.4
2018-08-24T10:10:34.000Z,31.5
2018-08-24T10:12:34.000Z,31.4
2018-08-24T10:14:34.000Z,31.2
2018-08-24T10:16:19.000Z,31.1
2018-08-24T10:17:34.000Z,31
2018-08-24T10:18:34.000Z,30.9
2018-08-24T10:20:34.000Z,30.9
2018-08-24T10:22:34.000Z,30.8
2018-08-24T10:24:34.000Z,30.8
2018-08-24T10:25:34.000Z,30.8
2018-08-24T10:26:34.000Z,30.9
2018-08-24T10:27:34.000Z,31
2018-08-24T10:29:34.000Z,31.1
2018-08-24T10:30:34.000Z,31.2
2018-08-24T10:31:34.000Z,31.3
2018-08-24T10:33:34.000Z,31.4
2018-08-24T10:35:34.000Z,31.7
2018-08-24T10:37:34.000Z,31.9
2018-08-24T10:39:19.000Z,32.9
2018-08-24T10:40:34.000Z,33.6
2018-08-24T10:41:34.000Z,33.9
2018-08-24T10:43:19.000Z,34.7
2018-08-24T10:44:34.000Z,35.1
2018-08-24T10:45:34.000Z,35.2
2018-08-24T10:47:34.000Z,35
2018-08-24T10:49:34.000Z,34.7
2018-08-24T10:50:34.000Z,34.5
2018-08-24T10:52:34.000Z,34.3
2018-08-24T10:53:34.000Z,34.2
2018-08-24T10:54:34.000Z,34.5
2018-08-24T10:56:34.000Z,35.7
2018-08-24T10:57:34.000Z,36.2
2018-08-24T10:58:34.000Z,36.5
2018-08-24T11:00:19.000Z,37.5
2018-08-24T11:01:34.000Z,38
2018-08-24T11:02:34.000Z,37.9
2018-08-24T11:04:34.000Z,38.1
2018-08-24T11:05:34.000Z,37.5
2018-08-24T11:07:34.000Z,36.3
2018-08-24T11:09:34.000Z,35.2
2018-08-24T11:11:34.000Z,34.4
2018-08-24T11:13:34.000Z,33.7
2018-08-24T11:15:34.000Z,33.2
2018-08-24T11:16:34.000Z,33.1
2018-08-24T11:17:34.000Z,33
2018-08-24T11:19:34.000Z,32.7
2018-08-24T11:20:34.000Z,32.6
2018-08-24T11:22:34.000Z,32.4
2018-08-24T11:24:34.000Z,32.1
2018-08-24T11:26:34.000Z,31.8
2018-08-24T11:28:34.000Z,31.6
2018-08-24T11:29:34.000Z,31.6
2018-08-24T11:31:34.000Z,31.5
2018-08-24T11:33:34.000Z,31.4
2018-08-24T11:34:34.000Z,31.4
2018-08-24T11:36:34.000Z,31.4
2018-08-24T11:38:34.000Z,31.2
2018-08-24T11:40:19.000Z,31.1
2018-08-24T11:41:34.000Z,31
2018-08-24T11:42:34.000Z,30.9
2018-08-24T11:44:19.000Z,30.8
2018-08-24T11:45:34.000Z,30.7
2018-08-24T11:47:34.000Z,30.6
2018-08-24T11:48:34.000Z,30.5
2018-08-24T11:49:34.000Z,30.6
2018-08-24T11:51:34.000Z,30.6
2018-08-24T11:52:34.000Z,30.5
2018-08-24T11:53:34.000Z,30.5
2018-08-24T11:55:34.000Z,30.6
2018-08-24T11:56:34.000Z,30.7
2018-08-24T11:57:34.000Z,30.7
2018-08-24T11:59:34.000Z,30.6
2018-08-24T12:01:34.000Z,30.6
2018-08-24T12:02:34.000Z,30.6
2018-08-24T12:03:34.000Z,30.6
2018-08-24T12:05:34.000Z,30.7
2018-08-24T12:06:34.000Z,30.7
2018-08-24T12:07:34.000Z,30.8
2018-08-24T12:08:34.000Z,30.9
2018-08-24T12:09:34.000Z,30.9
2018-08-24T12:10:34.000Z,31
2018-08-24T12:12:34.000Z,31
2018-08-24T12:14:34.000Z,30.9
2018-08-24T12:15:34.000Z,30.8
2018-08-24T12:16:34.000Z,30.9
2018-08-24T12:17:34.000Z,30.9
2018-08-24T12:19:34.000Z,30.9
2018-08-24T12:21:34.000Z,30.8
2018-08-24T12:23:34.000Z,30.7
2018-08-24T12:25:34.000Z,30.7
2018-08-24T12:26:34.000Z,30.7
2018-08-24T12:27:34.000Z,30.8
2018-08-24T12:28:34.000Z,30.8
2018-08-24T12:29:34.000Z,30.9
2018-08-24T12:30:34.000Z,30.9
2018-08-24T12:32:34.000Z,31
2018-08-24T12:33:34.000Z,31.1
2018-08-24T12:35:34.000Z,31.2
2018-08-24T12:37:34.000Z,31.2
2018-08-24T12:38:34.000Z,31.1
2018-08-24T12:40:34.000Z,31.1
2018-08-24T12:41:34.000Z,31.2
2018-08-24T12:43:34.000Z,31.1
2018-08-24T12:45:34.000Z,31.1
2018-08-24T12:46:34.000Z,31.1
2018-08-24T12:48:34.000Z,31.1
2018-08-24T12:50:34.000Z,31.1
2018-08-24T12:51:34.000Z,31.1
2018-08-24T12:53:34.000Z,31.1
2018-08-24T12:55:34.000Z,31
2018-08-24T12:56:34.000Z,31
2018-08-24T12:58:34.000Z,31.1
2018-08-24T12:59:34.000Z,31.1
2018-08-24T13:01:34.000Z,31.2
2018-08-24T13:03:34.000Z,31.1
2018-08-24T13:04:34.000Z,31.1
2018-08-24T13:06:34.000Z,31.1
2018-08-24T13:07:34.000Z,31.1
2018-08-24T13:08:34.000Z,31.2
2018-08-24T13:10:34.000Z,31.2
2018-08-24T13:11:34.000Z,31.2
2018-08-24T13:13:34.000Z,31.2
2018-08-24T13:15:34.000Z,31.2
2018-08-24T13:16:34.000Z,31.2
2018-08-24T13:17:34.000Z,31.2
2018-08-24T13:19:34.000Z,31.2
2018-08-24T13:20:34.000Z,31.2
2018-08-24T13:22:34.000Z,31.1
2018-08-24T13:24:34.000Z,31
2018-08-24T13:25:34.000Z,31
2018-08-24T13:26:34.000Z,31
2018-08-24T13:27:34.000Z,31
2018-08-24T13:29:34.000Z,31
2018-08-24T13:30:34.000Z,31.1
2018-08-24T13:32:34.000Z,31.1
2018-08-24T13:34:34.000Z,31.4
2018-08-24T13:36:34.000Z,31.3
2018-08-24T13:37:34.000Z,31.2
2018-08-24T13:39:34.000Z,31.1
2018-08-24T13:40:34.000Z,31.1
2018-08-24T13:41:34.000Z,31.1
2018-08-24T13:43:34.000Z,31.1
2018-08-24T13:45:34.000Z,31
2018-08-24T13:46:34.000Z,31
2018-08-24T13:47:34.000Z,31
2018-08-24T13:48:34.000Z,31.1
2018-08-24T13:50:34.000Z,31
2018-08-24T13:51:34.000Z,31
2018-08-24T13:52:34.000Z,31
2018-08-24T13:54:34.000Z,31
2018-08-24T13:55:34.000Z,31
2018-08-24T13:56:34.000Z,31.1
2018-08-24T13:58:34.000Z,31.1
2018-08-24T13:59:34.000Z,31.1
2018-08-24T14:00:34.000Z,31.1
2018-08-24T14:01:34.000Z,31.1
2018-08-24T14:02:34.000Z,31.1
2018-08-24T14:04:34.000Z,31
2018-08-24T14:05:35.000Z,30.9
2018-08-24T14:07:35.000Z,30.8
2018-08-24T14:09:35.000Z,30.7
2018-08-24T14:10:35.000Z,30.7
2018-08-24T14:11:35.000Z,30.7
2018-08-24T14:13:35.000Z,30.7
2018-08-24T14:15:35.000Z,30.6
2018-08-24T14:17:35.000Z,30.5
2018-08-24T14:19:35.000Z,30.4
2018-08-24T14:20:35.000Z,30.4
2018-08-24T14:22:19.000Z,30.5
2018-08-24T14:23:35.000Z,30.5
2018-08-24T14:25:35.000Z,30.5
2018-08-24T14:26:35.000Z,30.6
2018-08-24T14:28:35.000Z,30.6
2018-08-24T14:30:35.000Z,30.6
2018-08-24T14:32:35.000Z,30.6
2018-08-24T14:34:35.000Z,30.5
2018-08-24T14:35:35.000Z,30.5
2018-08-24T14:37:35.000Z,30.6
2018-08-24T14:38:35.000Z,30.6
2018-08-24T14:39:35.000Z,30.6
2018-08-24T14:41:35.000Z,30.7
2018-08-24T14:42:35.000Z,30.8
2018-08-24T14:43:35.000Z,30.8
2018-08-24T14:45:35.000Z,30.8
2018-08-24T14:47:35.000Z,30.7
2018-08-24T14:48:35.000Z,30.7
2018-08-24T14:49:35.000Z,30.7
2018-08-24T14:51:35.000Z,30.8
2018-08-24T14:52:35.000Z,30.8
2018-08-24T14:54:35.000Z,30.8
2018-08-24T14:55:35.000Z,30.8
2018-08-24T14:56:35.000Z,30.8
2018-08-24T14:58:19.000Z,30.8
2018-08-24T14:59:35.000Z,30.6
2018-08-24T15:00:35.000Z,30.6
2018-08-24T15:01:35.000Z,30.6
2018-08-24T15:03:35.000Z,30.6
2018-08-24T15:04:35.000Z,30.5
2018-08-24T15:06:35.000Z,30.5
2018-08-24T15:07:35.000Z,30.4
2018-08-24T15:09:34.000Z,30.4
2018-08-24T15:11:34.000Z,30.2
2018-08-24T15:12:34.000Z,30.1
2018-08-24T15:13:34.000Z,30.1
2018-08-24T15:15:34.000Z,30.2
2018-08-24T15:16:34.000Z,30.2
2018-08-24T15:18:19.000Z,30.3
2018-08-24T15:19:34.000Z,30.2
2018-08-24T15:21:34.000Z,30.2
2018-08-24T15:23:34.000Z,30.1
2018-08-24T15:25:34.000Z,30.1
2018-08-24T15:27:34.000Z,30
2018-08-24T15:28:34.000Z,30
2018-08-24T15:30:34.000Z,30
2018-08-24T15:31:34.000Z,30.1
2018-08-24T15:32:34.000Z,30.1
2018-08-24T15:34:34.000Z,30.2
2018-08-24T15:35:34.000Z,30.3
2018-08-24T15:37:34.000Z,30.4
2018-08-24T15:39:34.000Z,30.3
2018-08-24T15:41:34.000Z,30.3
2018-08-24T15:42:34.000Z,30.3
2018-08-24T15:43:34.000Z,30.3
2018-08-24T15:45:34.000Z,30.3
2018-08-24T15:46:34.000Z,30.3
2018-08-24T15:48:34.000Z,30.3
2018-08-24T15:50:19.000Z,30.4
2018-08-24T15:51:34.000Z,30.3
2018-08-24T15:53:34.000Z,30.4
2018-08-24T15:54:34.000Z,30.4
2018-08-24T15:56:34.000Z,30.5
2018-08-24T15:57:34.000Z,30.5
2018-08-24T15:59:19.000Z,30.6
2018-08-24T16:00:34.000Z,30.5
2018-08-24T16:02:19.000Z,30.5
2018-08-24T16:03:34.000Z,30.5
2018-08-24T16:05:34.000Z,30.3
2018-08-24T16:06:34.000Z,30.3
2018-08-24T16:08:34.000Z,30.3
2018-08-24T16:10:34.000Z,30.2
2018-08-24T16:12:34.000Z,30.2
2018-08-24T16:13:34.000Z,30.2
2018-08-24T16:15:34.000Z,30.2
2018-08-24T16:17:34.000Z,30.2
2018-08-24T16:18:34.000Z,30.2
2018-08-24T16:19:34.000Z,30.2
2018-08-24T16:21:34.000Z,30.3
2018-08-24T16:22:34.000Z,30.3
2018-08-24T16:23:34.000Z,30.4
2018-08-24T16:25:34.000Z,30.7
2018-08-24T16:26:34.000Z,30.8
2018-08-24T16:27:34.000Z,30.8
2018-08-24T16:29:34.000Z,31
2018-08-24T16:30:34.000Z,31
2018-08-24T16:31:34.000Z,31.1
2018-08-24T16:32:34.000Z,31.2
2018-08-24T16:34:34.000Z,31.3
2018-08-24T16:36:34.000Z,31.3
2018-08-24T16:38:34.000Z,31.3
2018-08-24T16:40:34.000Z,31.3
2018-08-24T16:42:34.000Z,31.3
2018-08-24T16:43:34.000Z,31.3
2018-08-24T16:44:34.000Z,31.4
2018-08-24T16:46:34.000Z,31.4
2018-08-24T16:48:34.000Z,31.4
2018-08-24T16:49:34.000Z,31.4
2018-08-24T16:51:34.000Z,31.5
2018-08-24T16:52:34.000Z,31.5
2018-08-24T16:53:34.000Z,31.5
2018-08-24T16:55:34.000Z,31.6
2018-08-24T16:57:34.000Z,31.6
2018-08-24T16:59:34.000Z,31.5
2018-08-24T17:01:34.000Z,31.4
2018-08-24T17:02:34.000Z,31.5
2018-08-24T17:03:34.000Z,31.5
2018-08-24T17:04:34.000Z,31.5
2018-08-24T17:06:34.000Z,31.5
2018-08-24T17:08:19.000Z,31.5
2018-08-24T17:09:34.000Z,31.5
2018-08-24T17:10:34.000Z,31.5
2018-08-24T17:12:34.000Z,31.5
2018-08-24T17:14:34.000Z,31.4
2018-08-24T17:16:35.000Z,31.4
2018-08-24T17:18:35.000Z,31.4
2018-08-24T17:20:35.000Z,31.4
2018-08-24T17:22:19.000Z,31.4
2018-08-24T17:23:35.000Z,31.3
2018-08-24T17:25:35.000Z,31.3
2018-08-24T17:26:35.000Z,31.3
2018-08-24T17:27:35.000Z,31.3
2018-08-24T17:29:35.000Z,31.3
2018-08-24T17:30:35.000Z,31.3
2018-08-24T17:32:35.000Z,31.4
2018-08-24T17:33:35.000Z,31.4
2018-08-24T17:34:35.000Z,31.5
2018-08-24T17:36:35.000Z,31.5
2018-08-24T17:37:35.000Z,31.5
2018-08-24T17:39:35.000Z,31.5
2018-08-24T17:40:35.000Z,31.5
2018-08-24T17:41:35.000Z,31.6
2018-08-24T17:42:35.000Z,31.6
2018-08-24T17:44:35.000Z,31.5
2018-08-24T17:45:35.000Z,31.5
2018-08-24T17:46:35.000Z,31.5
2018-08-24T17:48:35.000Z,31.5
2018-08-24T17:50:35.000Z,31.5
2018-08-24T17:52:35.000Z,31.4
2018-08-24T17:54:35.000Z,31.2
2018-08-24T17:55:35.000Z,31.2
2018-08-24T17:57:35.000Z,31.2
2018-08-24T17:59:35.000Z,31.2
2018-08-24T18:01:35.000Z,31.1
2018-08-24T18:03:35.000Z,31.1
2018-08-24T18:05:35.000Z,31.1
2018-08-24T18:07:19.000Z,31.1
2018-08-24T18:08:35.000Z,31.1
2018-08-24T18:10:35.000Z,31.1
2018-08-24T18:11:35.000Z,31.1
2018-08-24T18:12:35.000Z,31.2
2018-08-24T18:14:35.000Z,31.3
2018-08-24T18:16:35.000Z,31.3
2018-08-24T18:17:35.000Z,31.3
2018-08-24T18:18:35.000Z,31.4
2018-08-24T18:20:34.000Z,31.4
2018-08-24T18:21:34.000Z,31.4
2018-08-24T18:23:34.000Z,31.4
2018-08-24T18:24:34.000Z,31.4
2018-08-24T18:25:34.000Z,31.5
2018-08-24T18:27:34.000Z,31.5
2018-08-24T18:28:34.000Z,31.5
2018-08-24T18:29:34.000Z,31.5
2018-08-24T18:30:34.000Z,31.5
2018-08-24T18:32:34.000Z,31.4
2018-08-24T18:33:34.000Z,31.4
2018-08-24T18:35:34.000Z,31.4
2018-08-24T18:37:34.000Z,31.3
2018-08-24T18:39:34.000Z,31.2
2018-08-24T18:40:34.000Z,31.2
2018-08-24T18:42:34.000Z,31.2
2018-08-24T18:43:34.000Z,31.2
2018-08-24T18:45:34.000Z,31.2
2018-08-24T18:46:34.000Z,31.3
2018-08-24T18:47:34.000Z,31.3
2018-08-24T18:48:34.000Z,31.3
2018-08-24T18:50:34.000Z,31.3
2018-08-24T18:51:34.000Z,31.4
2018-08-24T18:53:34.000Z,31.3
2018-08-24T18:55:34.000Z,31.3
2018-08-24T18:56:34.000Z,31.2
2018-08-24T18:58:34.000Z,31.3
2018-08-24T18:59:34.000Z,31.3
2018-08-24T19:00:34.000Z,31.3
2018-08-24T19:01:34.000Z,31.4
2018-08-24T19:03:34.000Z,31.4
2018-08-24T19:04:34.000Z,31.4
2018-08-24T19:06:34.000Z,31.4
2018-08-24T19:08:34.000Z,31.3
2018-08-24T19:09:34.000Z,31.3
2018-08-24T19:10:34.000Z,31.3
2018-08-24T19:11:34.000Z,31.4
2018-08-24T19:13:34.000Z,31.4
2018-08-24T19:14:34.000Z,31.4
2018-08-24T19:16:34.000Z,31.4
2018-08-24T19:17:34.000Z,31.4
2018-08-24T19:18:34.000Z,31.4
2018-08-24T19:20:34.000Z,31.5
2018-08-24T19:23:34.000Z,31.4
2018-08-24T19:25:34.000Z,31.4
2018-08-24T19:26:34.000Z,31.4
2018-08-24T19:28:34.000Z,31.4
2018-08-24T19:29:34.000Z,31.4
2018-08-24T19:30:34.000Z,31.4
2018-08-24T19:31:34.000Z,31.4
2018-08-24T19:33:34.000Z,31.4
2018-08-24T19:34:34.000Z,31.4
2018-08-24T19:36:34.000Z,31.4
2018-08-24T19:38:34.000Z,31.4
2018-08-24T19:40:34.000Z,31.3
2018-08-24T19:42:34.000Z,31.2
2018-08-24T19:44:19.000Z,31.2
2018-08-24T19:45:34.000Z,31.2
2018-08-24T19:47:34.000Z,31.1
2018-08-24T19:49:34.000Z,31.1
2018-08-24T19:51:34.000Z,31.1
2018-08-24T19:52:34.000Z,31.1
2018-08-24T19:53:34.000Z,31.2
2018-08-24T19:54:34.000Z,31.2
2018-08-24T19:55:34.000Z,31.3
2018-08-24T19:57:34.000Z,31.4
2018-08-24T19:59:34.000Z,31.3
2018-08-24T20:00:34.000Z,31.3
2018-08-24T20:01:34.000Z,31.3
2018-08-24T20:03:34.000Z,31.3
2018-08-24T20:05:34.000Z,31.3
2018-08-24T20:06:34.000Z,31.3
2018-08-24T20:07:34.000Z,31.3
2018-08-24T20:09:34.000Z,31.4
2018-08-24T20:11:34.000Z,31.3
2018-08-24T20:12:34.000Z,31.3
2018-08-24T20:14:34.000Z,31.3
2018-08-24T20:16:34.000Z,31.3
2018-08-24T20:18:34.000Z,31.2
2018-08-24T20:19:34.000Z,31.1
2018-08-24T20:20:34.000Z,31.2
2018-08-24T20:21:34.000Z,31.2
2018-08-24T20:23:34.000Z,31.2
2018-08-24T20:24:34.000Z,31.2
2018-08-24T20:26:19.000Z,31.3
2018-08-24T20:27:34.000Z,31.3
2018-08-24T20:28:34.000Z,31.3
2018-08-24T20:29:34.000Z,31.3
2018-08-24T20:31:34.000Z,31.3
2018-08-24T20:33:34.000Z,31.2
2018-08-24T20:35:34.000Z,31.2
2018-08-24T20:36:34.000Z,31.2
2018-08-24T20:37:34.000Z,31.2
2018-08-24T20:39:34.000Z,31.3
2018-08-24T20:41:34.000Z,31.2
2018-08-24T20:42:34.000Z,31.2
2018-08-24T20:44:34.000Z,31.2
2018-08-24T20:46:34.000Z,31.2
2018-08-24T20:48:34.000Z,31.2
2018-08-24T20:50:34.000Z,31.1
2018-08-24T20:51:34.000Z,31.1
2018-08-24T20:53:34.000Z,31.2
2018-08-24T20:55:34.000Z,31.1
2018-08-24T20:57:34.000Z,31.1
2018-08-24T20:58:34.000Z,31.1
2018-08-24T21:00:34.000Z,31.1
2018-08-24T21:02:34.000Z,31.1
2018-08-24T21:04:19.000Z,31.1
2018-08-24T21:05:34.000Z,31.1
2018-08-24T21:06:34.000Z,31.1
2018-08-24T21:08:34.000Z,31.2
2018-08-24T21:09:34.000Z,31.2
2018-08-24T21:11:34.000Z,31.2
2018-08-24T21:13:34.000Z,31.2
2018-08-24T21:14:34.000Z,31.2
2018-08-24T21:15:34.000Z,31.3
2018-08-24T21:16:34.000Z,31.3
2018-08-24T21:18:34.000Z,31.3
2018-08-24T21:19:34.000Z,31.3
2018-08-24T21:21:34.000Z,31.3
2018-08-24T21:22:34.000Z,31.3
2018-08-24T21:24:34.000Z,31.3
2018-08-24T21:25:34.000Z,31.3
2018-08-24T21:27:34.000Z,31.3
2018-08-24T21:29:34.000Z,31.3
2018-08-24T21:31:35.000Z,31.2
2018-08-24T21:32:35.000Z,31.2
2018-08-24T21:34:35.000Z,31.2
2018-08-24T21:35:35.000Z,31.3
2018-08-24T21:36:35.000Z,31.3
2018-08-24T21:38:35.000Z,31.2
2018-08-24T21:40:35.000Z,31.1
2018-08-24T21:42:35.000Z,31.1
2018-08-24T21:44:35.000Z,31.1
2018-08-24T21:45:35.000Z,31.1
2018-08-24T21:46:35.000Z,31.1
2018-08-24T21:47:35.000Z,31.2
2018-08-24T21:49:35.000Z,31.3
2018-08-24T21:50:35.000Z,31.3
2018-08-24T21:51:35.000Z,31.4
2018-08-24T21:53:35.000Z,31.4
2018-08-24T21:54:35.000Z,31.4
2018-08-24T21:56:35.000Z,31.3
2018-08-24T21:57:35.000Z,31.3
2018-08-24T21:58:35.000Z,31.3
2018-08-24T21:59:35.000Z,31.4
2018-08-24T22:00:35.000Z,31.4
2018-08-24T22:01:35.000Z,31.4
2018-08-24T22:03:35.000Z,31.4
2018-08-24T22:04:35.000Z,31.4
2018-08-24T22:06:35.000Z,31.4
2018-08-24T22:07:35.000Z,31.3
2018-08-24T22:09:35.000Z,31.3
2018-08-24T22:10:35.000Z,31.3
2018-08-24T22:12:35.000Z,31.3
2018-08-24T22:14:35.000Z,31.3
2018-08-24T22:16:35.000Z,31.2
2018-08-24T22:17:35.000Z,31.2
2018-08-24T22:19:35.000Z,31.2
2018-08-24T22:20:35.000Z,31.2
2018-08-24T22:22:35.000Z,31.3
2018-08-24T22:24:35.000Z,31.2
2018-08-24T22:25:35.000Z,31.2
2018-08-24T22:27:35.000Z,31.1
2018-08-24T22:28:35.000Z,31.1
2018-08-24T22:29:35.000Z,31.1
2018-08-24T22:30:35.000Z,31.1
2018-08-24T22:32:35.000Z,31.2
2018-08-24T22:33:35.000Z,31.2
2018-08-24T22:34:34.000Z,31.2
2018-08-24T22:36:34.000Z,31.2
2018-08-24T22:38:19.000Z,31.2
2018-08-24T22:39:34.000Z,31.1
2018-08-24T22:40:34.000Z,31.1
2018-08-24T22:41:34.000Z,31.2
2018-08-24T22:43:34.000Z,31.2
2018-08-24T22:44:34.000Z,31.2
2018-08-24T22:45:34.000Z,31.2
2018-08-24T22:47:34.000Z,31.2
2018-08-24T22:48:34.000Z,31.3
2018-08-24T22:50:34.000Z,31.2
2018-08-24T22:51:34.000Z,31.2
2018-08-24T22:53:34.000Z,31.2
2018-08-24T22:55:34.000Z,31.1
2018-08-24T22:56:34.000Z,31.1
2018-08-24T22:57:34.000Z,31.2
2018-08-24T22:59:34.000Z,31.1
2018-08-24T23:00:34.000Z,31.1
2018-08-24T23:01:34.000Z,31.1
2018-08-24T23:03:34.000Z,31.2
2018-08-24T23:05:34.000Z,31.1
2018-08-24T23:07:34.000Z,31.1
2018-08-24T23:08:34.000Z,31.1
2018-08-24T23:09:34.000Z,31.2
2018-08-24T23:10:34.000Z,31.2
2018-08-24T23:11:34.000Z,31.2
2018-08-24T23:12:34.000Z,31.3
2018-08-24T23:14:34.000Z,31.3
2018-08-24T23:15:34.000Z,31.3
2018-08-24T23:17:34.000Z,31.3
2018-08-24T23:18:34.000Z,31.3
2018-08-24T23:20:34.000Z,31.3
2018-08-24T23:22:34.000Z,31.2
2018-08-24T23:24:34.000Z,31.2
2018-08-24T23:25:34.000Z,31.2
2018-08-24T23:27:34.000Z,31.1
2018-08-24T23:29:34.000Z,31.1
2018-08-24T23:30:34.000Z,31.1
2018-08-24T23:32:34.000Z,31.1
2018-08-24T23:33:34.000Z,31.1
2018-08-24T23:35:34.000Z,31.2
2018-08-24T23:37:19.000Z,31.2
2018-08-24T23:38:34.000Z,31.1
2018-08-24T23:39:34.000Z,31.1
2018-08-24T23:41:34.000Z,31.2
2018-08-24T23:42:34.000Z,31.2
2018-08-24T23:43:34.000Z,31.2
2018-08-24T23:45:34.000Z,31.3
2018-08-24T23:46:34.000Z,31.3
2018-08-24T23:48:34.000Z,31.3
2018-08-24T23:49:34.000Z,31.3
2018-08-24T23:51:34.000Z,31.3
2018-08-24T23:52:34.000Z,31.3
2018-08-24T23:54:34.000Z,31.3
2018-08-24T23:56:34.000Z,31.2
2018-08-24T23:58:34.000Z,31.1
